createdAt,value
2023-03-02T00:02:53.681Z,100900.42
2023-03-02T00:05:42.305Z,100897.01
2023-03-02T00:08:30.321Z,100900.69
2023-03-02T00:11:18.392Z,100903.16
2023-03-02T00:14:07.356Z,100898.98
2023-03-02T00:16:54.965Z,100901.96
2023-03-02T00:19:44.907Z,100902.11
2023-03-02T00:22:33.155Z,100901.91
2023-03-02T00:25:21.665Z,100905.55
2023-03-02T00:28:09.410Z,100903.45
2023-03-02T00:30:57.688Z,100904.84
2023-03-02T00:33:45.869Z,100907.09
2023-03-02T00:36:33.647Z,100905.54
2023-03-02T00:39:21.276Z,100902.78
2023-03-02T00:42:09.175Z,100898.45
2023-03-02T00:45:01.529Z,100901.77
2023-03-02T00:47:49.625Z,100898.97
2023-03-02T00:50:41.548Z,100900.34
2023-03-02T00:53:29.383Z,100897.72
2023-03-02T00:56:17.395Z,100896.83
2023-03-02T00:59:26.711Z,100891.77
2023-03-02T01:02:44.193Z,100889.70
2023-03-02T01:05:37.315Z,100886.23
2023-03-02T01:08:25.573Z,100879.64
2023-03-02T01:11:20.336Z,100882.80
2023-03-02T01:14:07.914Z,100883.00
2023-03-02T01:16:55.954Z,100885.45
2023-03-02T01:19:44.918Z,100886.48
2023-03-02T01:22:32.553Z,100888.59
2023-03-02T01:25:20.514Z,100883.19
2023-03-02T01:28:08.194Z,100882.99
2023-03-02T01:30:56.215Z,100883.48
2023-03-02T01:33:43.951Z,100882.06
2023-03-02T01:36:32.185Z,100879.77
2023-03-02T01:39:22.534Z,100881.83
2023-03-02T01:42:10.413Z,100878.50
2023-03-02T01:44:59.583Z,100882.67
2023-03-02T01:47:47.554Z,100880.20
2023-03-02T01:50:37.933Z,100874.79
2023-03-02T01:53:29.651Z,100867.67
2023-03-02T01:56:23.842Z,100865.95
2023-03-02T01:59:20.430Z,100863.89
2023-03-02T02:02:11.652Z,100866.20
2023-03-02T02:04:59.422Z,100865.73
2023-03-02T02:07:47.917Z,100868.02
2023-03-02T02:10:36.872Z,100862.88
2023-03-02T02:13:25.142Z,100865.61
2023-03-02T02:16:13.084Z,100852.82
2023-03-02T02:19:02.872Z,100857.64
2023-03-02T02:21:50.742Z,100852.61
2023-03-02T02:24:59.498Z,100855.05
2023-03-02T02:27:48.108Z,100858.20
2023-03-02T02:30:40.776Z,100862.44
2023-03-02T02:33:29.219Z,100860.94
2023-03-02T02:36:25.299Z,100865.48
2023-03-02T02:39:31.467Z,100864.83
2023-03-02T02:42:27.497Z,100863.13
2023-03-02T02:45:25.105Z,100863.84
2023-03-02T02:48:18.774Z,100864.17
2023-03-02T02:51:12.983Z,100857.41
2023-03-02T02:54:04.176Z,100856.73
2023-03-02T02:56:58.531Z,100855.48
2023-03-02T02:59:52.565Z,100855.14
2023-03-02T03:02:45.867Z,100849.89
2023-03-02T03:05:33.969Z,100848.15
2023-03-02T03:08:46.256Z,100848.50
2023-03-02T03:11:44.804Z,100848.20
2023-03-02T03:14:41.661Z,100844.91
2023-03-02T03:17:30.764Z,100845.98
2023-03-02T03:20:23.103Z,100841.66
2023-03-02T03:23:10.988Z,100835.94
2023-03-02T03:25:59.023Z,100836.29
2023-03-02T03:28:47.028Z,100835.40
2023-03-02T03:31:35.609Z,100828.83
2023-03-02T03:34:25.830Z,100833.98
2023-03-02T03:37:18.973Z,100834.51
2023-03-02T03:40:09.913Z,100832.91
2023-03-02T03:42:59.279Z,100831.16
2023-03-02T03:45:47.826Z,100829.77
2023-03-02T03:48:35.716Z,100826.81
2023-03-02T03:51:24.719Z,100825.95
2023-03-02T03:54:12.477Z,100826.48
2023-03-02T03:57:01.422Z,100824.23
2023-03-02T03:59:49.438Z,100823.91
2023-03-02T04:02:38.250Z,100823.20
2023-03-02T04:05:26.927Z,100818.48
2023-03-02T04:08:15.831Z,100812.02
2023-03-02T04:11:03.821Z,100808.70
2023-03-02T04:13:51.811Z,100802.79
2023-03-02T04:16:41.267Z,100805.21
2023-03-02T04:19:29.387Z,100806.59
2023-03-02T04:22:20.124Z,100806.04
2023-03-02T04:25:08.879Z,100800.65
2023-03-02T04:27:57.315Z,100798.21
2023-03-02T04:30:48.990Z,100799.96
2023-03-02T04:33:36.988Z,100802.21
2023-03-02T04:36:26.008Z,100801.52
2023-03-02T04:39:17.359Z,100802.54
2023-03-02T04:42:12.077Z,100799.20
2023-03-02T04:44:59.905Z,100795.70
2023-03-02T04:47:47.765Z,100796.21
2023-03-02T04:50:35.936Z,100795.30
2023-03-02T04:53:23.987Z,100790.76
2023-03-02T04:56:12.054Z,100793.20
2023-03-02T04:59:00.336Z,100795.44
2023-03-02T05:01:48.882Z,100794.39
2023-03-02T05:04:37.268Z,100793.53
2023-03-02T05:07:25.576Z,100793.02
2023-03-02T05:10:16.685Z,100791.80
2023-03-02T05:13:05.910Z,100786.23
2023-03-02T05:15:54.037Z,100786.42
2023-03-02T05:18:42.290Z,100787.81
2023-03-02T05:21:30.589Z,100791.80
2023-03-02T05:24:19.114Z,100791.08
2023-03-02T05:27:07.034Z,100787.77
2023-03-02T05:29:55.146Z,100790.02
2023-03-02T05:32:43.359Z,100790.88
2023-03-02T05:35:31.471Z,100790.35
2023-03-02T05:38:19.369Z,100793.84
2023-03-02T05:41:08.547Z,100792.98
2023-03-02T05:43:57.070Z,100792.27
2023-03-02T05:46:45.432Z,100785.19
2023-03-02T05:49:33.305Z,100792.92
2023-03-02T05:52:21.271Z,100791.66
2023-03-02T05:55:09.595Z,100791.08
2023-03-02T05:57:57.764Z,100789.48
2023-03-02T06:00:47.429Z,100786.70
2023-03-02T06:03:35.209Z,100791.23
2023-03-02T06:06:22.785Z,100786.72
2023-03-02T06:09:10.730Z,100782.55
2023-03-02T06:11:59.350Z,100785.17
2023-03-02T06:14:47.167Z,100787.78
2023-03-02T06:17:35.817Z,100788.62
2023-03-02T06:20:24.003Z,100786.14
2023-03-02T06:23:12.200Z,100786.80
2023-03-02T06:26:00.221Z,100786.73
2023-03-02T06:28:53.569Z,100789.47
2023-03-02T06:31:41.884Z,100790.11
2023-03-02T06:34:29.695Z,100788.66
2023-03-02T06:37:17.426Z,100785.50
2023-03-02T06:40:16.108Z,100788.21
2023-03-02T06:43:04.609Z,100792.84
2023-03-02T06:45:52.839Z,100792.02
2023-03-02T06:48:40.810Z,100790.35
2023-03-02T06:51:28.453Z,100786.35
2023-03-02T06:54:16.424Z,100785.84
2023-03-02T06:57:04.260Z,100791.61
2023-03-02T06:59:52.492Z,100789.33
2023-03-02T07:02:40.205Z,100785.14
2023-03-02T07:05:29.272Z,100786.30
2023-03-02T07:08:17.353Z,100783.30
2023-03-02T07:11:11.294Z,100785.80
2023-03-02T07:14:03.222Z,100785.69
2023-03-02T07:16:51.243Z,100778.92
2023-03-02T07:19:40.873Z,100776.17
2023-03-02T07:22:29.014Z,100766.67
2023-03-02T07:25:17.085Z,100764.52
2023-03-02T07:28:05.340Z,100755.55
2023-03-02T07:30:54.378Z,100747.79
2023-03-02T07:33:42.384Z,100740.41
2023-03-02T07:36:30.221Z,100741.54
2023-03-02T07:39:18.638Z,100734.69
2023-03-02T07:42:09.051Z,100733.30
2023-03-02T07:44:56.962Z,100731.59
2023-03-02T07:47:44.808Z,100727.09
2023-03-02T07:50:33.867Z,100728.65
2023-03-02T07:53:21.548Z,100727.04
2023-03-02T07:56:11.404Z,100727.45
2023-03-02T07:58:59.315Z,100722.64
2023-03-02T08:01:47.224Z,100718.88
2023-03-02T08:04:35.935Z,100716.02
2023-03-02T08:07:23.817Z,100711.47
2023-03-02T08:10:12.549Z,100711.93
2023-03-02T08:13:00.250Z,100710.05
2023-03-02T08:15:48.173Z,100708.42
2023-03-02T08:18:37.463Z,100703.52
2023-03-02T08:21:27.205Z,100698.35
2023-03-02T08:24:15.365Z,100699.50
2023-03-02T08:27:04.635Z,100699.92
2023-03-02T08:29:54.373Z,100702.11
2023-03-02T08:32:42.455Z,100699.73
2023-03-02T08:35:30.411Z,100700.16
2023-03-02T08:38:18.182Z,100700.90
2023-03-02T08:41:10.556Z,100696.92
2023-03-02T08:43:58.903Z,100698.34
2023-03-02T08:46:47.342Z,100695.04
2023-03-02T08:49:37.324Z,100697.80
2023-03-02T08:52:25.570Z,100696.05
2023-03-02T08:55:14.150Z,100690.83
2023-03-02T08:58:03.482Z,100695.15
2023-03-02T09:00:52.225Z,100695.63
2023-03-02T09:03:40.206Z,100687.48
2023-03-02T09:06:30.331Z,100693.02
2023-03-02T09:09:18.174Z,100696.98
2023-03-02T09:12:06.574Z,100689.14
2023-03-02T09:14:54.397Z,100692.41
2023-03-02T09:17:42.489Z,100684.92
2023-03-02T09:20:30.215Z,100687.48
2023-03-02T09:23:19.318Z,100682.08
2023-03-02T09:26:07.463Z,100683.05
2023-03-02T09:28:56.111Z,100679.83
2023-03-02T09:31:44.375Z,100677.08
2023-03-02T09:34:32.191Z,100676.31
2023-03-02T09:37:20.035Z,100675.88
2023-03-02T09:40:44.277Z,100681.23
2023-03-02T09:43:44.719Z,100677.05
2023-03-02T09:47:05.757Z,100672.86
2023-03-02T09:50:27.243Z,100674.52
2023-03-02T09:53:45.674Z,100675.91
2023-03-02T09:56:38.331Z,100677.91
2023-03-02T09:59:39.658Z,100670.52
2023-03-02T10:02:36.363Z,100671.48
2023-03-02T10:05:41.201Z,100668.20
2023-03-02T10:08:34.284Z,100667.34
2023-03-02T10:11:50.562Z,100663.42
2023-03-02T10:14:49.362Z,100662.56
2023-03-02T10:18:12.501Z,100662.69
2023-03-02T10:21:33.702Z,100665.98
2023-03-02T10:24:50.715Z,100662.91
2023-03-02T10:27:52.159Z,100663.20
2023-03-02T10:30:40.443Z,100657.36
2023-03-02T10:33:29.379Z,100653.16
2023-03-02T10:36:28.488Z,100653.52
2023-03-02T10:39:18.231Z,100655.30
2023-03-02T10:42:13.523Z,100654.98
2023-03-02T10:45:29.800Z,100657.77
2023-03-02T10:48:17.998Z,100655.05
2023-03-02T10:51:06.268Z,100654.02
2023-03-02T10:54:23.707Z,100652.73
2023-03-02T10:57:29.949Z,100649.20
2023-03-02T11:00:28.093Z,100653.51
2023-03-02T11:03:26.329Z,100652.95
2023-03-02T11:06:22.543Z,100652.95
2023-03-02T11:09:14.993Z,100649.52
2023-03-02T11:12:03.068Z,100644.23
2023-03-02T11:15:40.981Z,100643.23
2023-03-02T11:18:42.293Z,100642.40
2023-03-02T11:21:50.947Z,100642.33
2023-03-02T11:24:58.208Z,100640.94
2023-03-02T11:27:46.342Z,100634.67
2023-03-02T11:30:40.921Z,100631.94
2023-03-02T11:34:15.611Z,100624.42
2023-03-02T11:37:46.919Z,100627.09
2023-03-02T11:40:51.469Z,100612.79
2023-03-02T11:43:39.470Z,100612.34
2023-03-02T11:46:32.474Z,100612.27
2023-03-02T11:49:40.114Z,100611.48
2023-03-02T11:52:32.224Z,100612.50
2023-03-02T11:55:27.491Z,100610.15
2023-03-02T11:58:25.584Z,100605.69
2023-03-02T12:01:25.491Z,100604.70
2023-03-02T12:04:35.413Z,100602.27
2023-03-02T12:07:27.406Z,100597.16
2023-03-02T12:10:58.898Z,100599.51
2023-03-02T12:14:04.152Z,100593.94
2023-03-02T12:16:52.619Z,100591.19
2023-03-02T12:19:45.193Z,100589.34
2023-03-02T12:22:34.543Z,100587.53
2023-03-02T12:25:27.922Z,100584.71
2023-03-02T12:28:39.124Z,100588.19
2023-03-02T12:31:43.535Z,100589.70
2023-03-02T12:34:52.749Z,100588.70
2023-03-02T12:38:22.990Z,100582.71
2023-03-02T12:41:48.203Z,100575.59
2023-03-02T12:44:50.465Z,100575.45
2023-03-02T12:47:41.528Z,100571.25
2023-03-02T12:50:36.801Z,100572.58
2023-03-02T12:53:24.943Z,100574.71
2023-03-02T12:56:23.960Z,100568.82
2023-03-02T12:59:27.119Z,100569.95
2023-03-02T13:02:21.564Z,100562.05
2023-03-02T13:05:16.759Z,100564.25
2023-03-02T13:08:25.396Z,100560.09
2023-03-02T13:11:14.287Z,100559.29
2023-03-02T13:14:03.865Z,100557.30
2023-03-02T13:17:04.774Z,100560.95
2023-03-02T13:19:53.359Z,100561.50
2023-03-02T13:22:41.573Z,100561.84
2023-03-02T13:25:31.687Z,100559.43
2023-03-02T13:28:35.319Z,100556.20
2023-03-02T13:31:25.399Z,100551.44
2023-03-02T13:34:27.231Z,100550.59
2023-03-02T13:37:39.307Z,100550.61
2023-03-02T13:40:27.345Z,100550.55
2023-03-02T13:43:34.782Z,100548.90
2023-03-02T13:46:22.529Z,100546.84
2023-03-02T13:49:11.669Z,100545.66
2023-03-02T13:52:14.224Z,100544.23
2023-03-02T13:55:02.603Z,100546.55
2023-03-02T13:57:52.941Z,100544.01
2023-03-02T14:00:40.837Z,100540.12
2023-03-02T14:03:31.316Z,100536.50
2023-03-02T14:06:19.167Z,100532.45
2023-03-02T14:09:07.435Z,100530.67
2023-03-02T14:11:57.110Z,100526.46
2023-03-02T14:14:45.666Z,100520.15
2023-03-02T14:17:35.167Z,100517.08
2023-03-02T14:20:25.278Z,100513.60
2023-03-02T14:23:13.276Z,100512.61
2023-03-02T14:26:01.526Z,100511.78
2023-03-02T14:28:59.920Z,100511.91
2023-03-02T14:32:00.377Z,100507.49
2023-03-02T14:34:48.359Z,100503.22
2023-03-02T14:37:36.209Z,100501.77
2023-03-02T14:40:28.412Z,100498.02
2023-03-02T14:43:18.739Z,100501.34
2023-03-02T14:46:07.571Z,100497.25
2023-03-02T14:48:55.725Z,100496.16
2023-03-02T14:51:49.112Z,100491.77
2023-03-02T14:54:47.914Z,100492.73
2023-03-02T14:57:38.750Z,100493.23
2023-03-02T15:00:27.474Z,100502.06
2023-03-02T15:03:25.671Z,100498.71
2023-03-02T15:06:37.780Z,100496.08
2023-03-02T15:09:25.795Z,100486.52
2023-03-02T15:12:13.863Z,100488.63
2023-03-02T15:15:01.995Z,100475.92
2023-03-02T15:17:50.462Z,100475.27
2023-03-02T15:20:38.586Z,100477.55
2023-03-02T15:23:26.759Z,100481.23
2023-03-02T15:26:15.197Z,100484.09
2023-03-02T15:29:03.232Z,100486.64
2023-03-02T15:31:51.625Z,100481.63
2023-03-02T15:34:39.875Z,100480.06
2023-03-02T15:37:28.424Z,100479.77
2023-03-02T15:40:16.342Z,100477.49
2023-03-02T15:43:04.826Z,100468.56
2023-03-02T15:45:52.831Z,100464.73
2023-03-02T15:48:40.733Z,100462.34
2023-03-02T15:51:28.501Z,100459.86
2023-03-02T15:54:16.386Z,100462.67
2023-03-02T15:57:04.664Z,100453.52
2023-03-02T15:59:52.821Z,100466.77
2023-03-02T16:02:41.214Z,100464.13
2023-03-02T16:05:29.458Z,100463.84
2023-03-02T16:08:17.523Z,100459.86
2023-03-02T16:11:10.540Z,100460.55
2023-03-02T16:13:58.323Z,100460.86
2023-03-02T16:16:47.075Z,100459.70
2023-03-02T16:19:35.498Z,100458.31
2023-03-02T16:22:23.493Z,100456.95
2023-03-02T16:25:11.803Z,100460.84
2023-03-02T16:27:59.605Z,100461.19
2023-03-02T16:30:48.014Z,100463.86
2023-03-02T16:33:36.961Z,100463.90
2023-03-02T16:36:26.100Z,100457.42
2023-03-02T16:39:15.112Z,100455.68
2023-03-02T16:42:03.436Z,100451.13
2023-03-02T16:44:53.645Z,100454.02
2023-03-02T16:47:41.633Z,100453.04
2023-03-02T16:50:29.646Z,100452.94
2023-03-02T16:53:19.424Z,100456.84
2023-03-02T16:56:09.594Z,100458.46
2023-03-02T16:58:59.949Z,100460.64
2023-03-02T17:01:47.917Z,100468.05
2023-03-02T17:04:37.347Z,100467.23
2023-03-02T17:07:25.287Z,100466.95
2023-03-02T17:10:19.713Z,100465.38
2023-03-02T17:13:08.956Z,100462.94
2023-03-02T17:15:58.139Z,100460.50
2023-03-02T17:18:47.187Z,100452.81
2023-03-02T17:21:35.366Z,100450.00
2023-03-02T17:24:23.153Z,100450.36
2023-03-02T17:27:24.261Z,100449.73
2023-03-02T17:30:16.248Z,100457.92
2023-03-02T17:33:04.594Z,100460.65
2023-03-02T17:35:52.319Z,100460.63
2023-03-02T17:38:41.146Z,100463.27
2023-03-02T17:41:29.145Z,100453.11
2023-03-02T17:44:17.266Z,100457.39
2023-03-02T17:47:06.491Z,100452.21
2023-03-02T17:49:56.358Z,100447.21
2023-03-02T17:52:45.153Z,100445.71
2023-03-02T17:55:33.166Z,100451.65
2023-03-02T17:58:21.133Z,100453.24
2023-03-02T18:01:09.276Z,100451.85
2023-03-02T18:03:57.885Z,100452.89
2023-03-02T18:06:45.676Z,100452.90
2023-03-02T18:09:33.617Z,100447.20
2023-03-02T18:12:21.734Z,100449.66
2023-03-02T18:15:10.321Z,100440.81
2023-03-02T18:17:58.403Z,100442.60
2023-03-02T18:20:46.137Z,100440.88
2023-03-02T18:23:34.166Z,100437.78
2023-03-02T18:26:22.526Z,100435.73
2023-03-02T18:29:10.917Z,100433.14
2023-03-02T18:31:59.905Z,100432.63
2023-03-02T18:34:48.190Z,100431.41
2023-03-02T18:37:36.269Z,100428.30
2023-03-02T18:40:24.278Z,100429.00
2023-03-02T18:43:12.190Z,100431.48
2023-03-02T18:46:02.111Z,100431.87
2023-03-02T18:48:51.145Z,100429.67
2023-03-02T18:51:39.399Z,100431.44
2023-03-02T18:54:27.474Z,100431.83
2023-03-02T18:57:15.702Z,100432.90
2023-03-02T19:00:07.111Z,100431.15
2023-03-02T19:02:56.941Z,100431.67
2023-03-02T19:05:45.826Z,100434.51
2023-03-02T19:08:35.765Z,100429.16
2023-03-02T19:11:23.546Z,100415.30
2023-03-02T19:14:11.501Z,100413.80
2023-03-02T19:16:59.569Z,100411.95
2023-03-02T19:19:47.615Z,100408.67
2023-03-02T19:22:36.024Z,100396.85
2023-03-02T19:25:24.588Z,100402.61
2023-03-02T19:28:13.399Z,100406.09
2023-03-02T19:31:08.977Z,100393.52
2023-03-02T19:33:57.450Z,100406.15
2023-03-02T19:36:45.146Z,100402.42
2023-03-02T19:39:33.218Z,100401.11
2023-03-02T19:42:21.501Z,100404.87
2023-03-02T19:45:14.617Z,100400.23
2023-03-02T19:48:04.044Z,100394.33
2023-03-02T19:50:53.285Z,100401.33
2023-03-02T19:53:43.616Z,100396.30
2023-03-02T19:56:35.072Z,100389.98
2023-03-02T19:59:24.656Z,100383.91
2023-03-02T20:02:15.088Z,100387.57
2023-03-02T20:05:04.418Z,100386.17
2023-03-02T20:07:52.337Z,100376.93
2023-03-02T20:10:45.217Z,100383.71
2023-03-02T20:13:33.631Z,100383.01
2023-03-02T20:16:23.102Z,100380.88
2023-03-02T20:19:14.146Z,100378.09
2023-03-02T20:22:03.820Z,100377.10
2023-03-02T20:24:51.866Z,100375.73
2023-03-02T20:27:39.655Z,100369.52
2023-03-02T20:30:43.429Z,100368.66
2023-03-02T20:33:37.429Z,100365.19
2023-03-02T20:36:34.604Z,100363.45
2023-03-02T20:39:31.777Z,100372.34
2023-03-02T20:42:20.496Z,100376.67
2023-03-02T20:45:09.601Z,100375.81
2023-03-02T20:47:58.766Z,100373.56
2023-03-02T20:50:46.784Z,100375.10
2023-03-02T20:53:35.280Z,100374.57
2023-03-02T20:56:24.890Z,100373.36
2023-03-02T20:59:14.661Z,100365.57
2023-03-02T21:02:02.864Z,100365.23
2023-03-02T21:04:51.079Z,100372.89
2023-03-02T21:07:39.382Z,100369.79
2023-03-02T21:10:38.870Z,100369.13
2023-03-02T21:13:27.223Z,100375.64
2023-03-02T21:16:26.546Z,100375.50
2023-03-02T21:19:18.922Z,100385.11
2023-03-02T21:22:06.832Z,100378.59
2023-03-02T21:24:54.815Z,100358.14
2023-03-02T21:27:44.501Z,100362.63
2023-03-02T21:30:35.083Z,100352.77
2023-03-02T21:33:23.051Z,100340.52
2023-03-02T21:36:24.311Z,100341.10
2023-03-02T21:39:14.559Z,100336.90
2023-03-02T21:42:03.885Z,100330.42
2023-03-02T21:44:51.996Z,100325.40
2023-03-02T21:47:42.546Z,100316.90
2023-03-02T21:50:35.741Z,100319.05
2023-03-02T21:53:24.045Z,100314.80
2023-03-02T21:56:21.839Z,100324.41
2023-03-02T21:59:12.385Z,100329.46
2023-03-02T22:02:01.235Z,100330.87
2023-03-02T22:04:49.030Z,100327.92
2023-03-02T22:07:36.986Z,100322.67
2023-03-02T22:11:31.230Z,100319.50
2023-03-02T22:14:19.908Z,100313.20
2023-03-02T22:17:24.865Z,100305.70
2023-03-02T22:20:18.849Z,100297.92
2023-03-02T22:23:13.807Z,100299.48
2023-03-02T22:26:16.281Z,100301.48
2023-03-02T22:29:45.430Z,100286.31
2023-03-02T22:32:40.960Z,100287.30
2023-03-02T22:35:29.187Z,100280.75
2023-03-02T22:38:29.830Z,100277.31
2023-03-02T22:41:19.983Z,100280.51
2023-03-02T22:44:14.421Z,100277.64
2023-03-02T22:47:12.392Z,100275.27
2023-03-02T22:50:31.933Z,100266.87
2023-03-02T22:53:24.659Z,100257.61
2023-03-02T22:56:37.521Z,100250.25
2023-03-02T22:59:28.373Z,100240.77
2023-03-02T23:02:22.434Z,100234.19
2023-03-02T23:05:29.086Z,100233.02
2023-03-02T23:08:21.437Z,100225.94
2023-03-02T23:11:16.732Z,100230.15
2023-03-02T23:14:50.049Z,100225.70
2023-03-02T23:17:40.693Z,100227.75
2023-03-02T23:20:28.853Z,100224.07
2023-03-02T23:23:18.673Z,100228.52
2023-03-02T23:26:06.720Z,100232.81
2023-03-02T23:28:54.458Z,100238.59
2023-03-02T23:31:42.204Z,100236.48
2023-03-02T23:34:31.354Z,100245.29
2023-03-02T23:37:19.411Z,100238.02
2023-03-02T23:40:08.432Z,100239.24
2023-03-02T23:42:57.921Z,100231.55
2023-03-02T23:45:45.614Z,100239.67
2023-03-02T23:48:34.323Z,100246.83
2023-03-02T23:51:25.623Z,100248.09
2023-03-02T23:54:14.026Z,100238.04
2023-03-02T23:57:02.090Z,100235.66
2023-03-02T23:59:50.030Z,100222.65
